EDT,Max TemperatureF,Mean TemperatureF,Min TemperatureF,Max Dew PointF,MeanDew PointF,Min DewpointF,Max Humidity, Mean Humidity, Min Humidity, Max Sea Level PressureIn, Mean Sea Level PressureIn, Min Sea Level PressureIn, Max VisibilityMiles, Mean VisibilityMiles, Min VisibilityMiles, Max Wind SpeedMPH, Mean Wind SpeedMPH, Max Gust SpeedMPH,PrecipitationIn, CloudCover, Events, WindDirDegrees
2013-7-1,78,72,66,73,70,66,100,88,76,30.07,30.01,29.93,10,7,1,9,2,14,0.71,6,Rain,101
2013-7-2,77,69,61,73,67,61,100,97,93,30.23,30.14,30.06,10,7,1,15,5,20,0.74,8,Rain,112
2013-7-3,88,75,61,72,65,61,100,78,55,30.22,30.17,30.11,10,6,2,14,4,20,0.01,6,Rain,173
2013-7-4,93,79,65,72,70,66,100,73,46,30.19,30.13,30.06,10,9,4,13,4,17,0.00,1,,226
2013-7-5,95,83,70,72,71,69,93,70,46,30.15,30.09,30.02,10,10,9,15,5,22,T,0,,242
2013-7-6,89,79,68,71,68,63,93,70,47,30.07,30.03,29.97,10,10,10,17,6,23,0.00,1,,270
2013-7-7,90,77,64,73,68,62,100,73,45,30.01,29.96,29.91,10,9,1,14,3,18,0.14,2,Rain-Thunderstorm,6
2013-7-8,83,74,64,73,70,62,100,85,69,30.08,29.98,29.92,10,6,1,13,2,17,0.47,8,Rain-Thunderstorm,81
2013-7-9,75,70,64,67,65,63,100,90,79,30.12,30.09,30.07,10,9,7,10,2,14,T,8,,123
2013-7-10,77,71,64,73,68,63,100,91,82,30.07,29.90,29.78,10,4,0,13,4,15,0.24,7,Fog-Rain-Thunderstorm,142
2013-7-11,83,75,66,72,70,61,100,79,58,29.96,29.81,29.75,10,4,0,14,3,17,T,5,Fog-Rain,185
2013-7-12,81,71,61,63,60,57,93,71,48,30.22,30.11,29.98,10,10,10,10,3,15,0.00,4,,95
2013-7-13,81,70,58,68,62,57,97,78,58,30.32,30.29,30.23,10,10,10,9,2,12,0.00,6,,141
2013-7-14,89,77,65,71,68,64,100,76,51,30.31,30.27,30.20,10,8,0,13,3,16,0.00,5,Fog,322
2013-7-15,93,79,65,71,67,64,100,72,44,30.21,30.16,30.09,10,10,9,14,4,18,0.00,0,,304
2013-7-16,92,78,64,72,67,63,100,69,38,30.17,30.15,30.12,10,10,8,16,5,21,0.00,1,,324
2013-7-17,94,80,66,70,68,66,100,71,41,30.18,30.10,29.99,10,9,6,14,4,17,0.00,1,,240
2013-7-18,93,81,69,73,71,68,100,75,49,30.02,29.98,29.94,10,7,0,14,4,17,1.28,4,Fog-Rain-Thunderstorm,23
2013-7-19,95,82,69,75,71,70,100,73,46,29.94,29.83,29.69,10,6,0,38,6,56,0.24,2,Fog-Thunderstorm,215
2013-7-20,89,77,64,70,67,64,100,75,50,29.81,29.72,29.65,10,9,1,25,4,37,0.01,2,Rain-Thunderstorm,269
2013-7-21,81,71,61,65,63,61,100,77,54,30.00,29.93,29.83,10,10,7,13,2,22,0.00,2,,147
2013-7-22,78,71,63,70,65,62,100,85,69,30.05,29.99,29.91,10,8,1,10,3,16,0.03,7,Rain,51
2013-7-23,77,71,64,69,65,64,100,87,74,29.89,29.69,29.55,10,6,0,10,3,14,2.40,7,Fog-Rain,360
2013-7-24,83,70,56,68,62,46,100,77,54,30.00,29.68,29.59,10,6,0,18,7,25,0.00,5,Fog,324
2013-7-25,74,63,52,58,52,46,84,69,53,30.12,30.08,30.01,10,10,10,10,3,14,0.00,6,,11
2013-7-26,74,68,61,67,62,59,100,82,64,30.09,30.01,29.95,10,9,2,15,5,18,0.34,7,Rain,312
2013-7-27,83,68,53,63,58,53,100,69,37,30.05,30.01,29.98,10,10,2,10,3,,0.00,0,,216
2013-7-28,80,69,58,68,64,57,100,81,62,30.03,30.00,29.97,10,8,2,15,3,20,0.08,5,Rain,93
2013-7-29,84,73,61,71,66,63,100,78,55,30.06,30.01,29.94,10,7,2,14,3,22,0.01,6,Rain-Thunderstorm,117
2013-7-30,80,68,55,63,58,51,100,70,39,30.10,30.07,30.04,10,6,0,16,4,22,0.00,3,Fog,314
2013-7-31,82,68,54,62,57,53,100,70,39,30.14,30.09,30.03,10,10,10,9,2,14,0.00,1,,304